This is the latest recevied weather packets stored in our database for station/object WE3WEE. If no packets are shown the sender has not sent any weather packets the latest 10 day(s).
| Time | Temp. | Humidity | Pressure | Rain* | Wind** | Luminosity | Snow |
|---|---|---|---|---|---|---|---|
| 1778052743 | 14.44° C | 75% | 1007.5 hPa | 0 mm | - | - | - |
| 1778052440 | 13.89° C | 77% | 1007.5 hPa | 0 mm | - | - | - |
| 1778042144 | 12.78° C | 86% | 1008.5 hPa | 0 mm | - | - | - |
| 1778041842 | 12.78° C | 86% | 1008.5 hPa | 0 mm | - | - | - |
| 1778041541 | 12.78° C | 86% | 1008.5 hPa | 0 mm | - | - | - |
| 1778041239 | 12.78° C | 86% | 1008.5 hPa | 0 mm | - | - | - |
| 1778040937 | 12.78° C | 86% | 1008.5 hPa | 0 mm | - | - | - |
| 1778040633 | 12.78° C | 87% | 1009.6 hPa | 0 mm | - | - | - |
| 1778040331 | 12.78° C | 86% | 1009.6 hPa | 0 mm | - | - | - |
| 1778040027 | 12.78° C | 86% | 1009.6 hPa | 0 mm | - | - | - |
| 1778039724 | 12.78° C | 86% | 1008.5 hPa | 0 mm | - | - | - |
| 1778039421 | 12.78° C | 86% | 1008.5 hPa | 0 mm | - | - | - |
| 1778039119 | 12.78° C | 86% | 1008.5 hPa | 0 mm | - | - | - |
| 1778038815 | 12.78° C | 86% | 1008.5 hPa | 0 mm | - | - | - |
| 1778038513 | 13.33° C | 85% | 1008.5 hPa | 0 mm | - | - | - |
| 1778038209 | 13.33° C | 85% | 1008.5 hPa | 0 mm | - | - | - |
| 1778037907 | 13.89° C | 83% | 1008.5 hPa | 0 mm | - | - | - |
| 1778037603 | 13.89° C | 82% | 1008.5 hPa | 0 mm | - | - | - |
| 1778037301 | 13.89° C | 82% | 1008.5 hPa | 0 mm | - | - | - |
| 1778036998 | 13.89° C | 82% | 1009.6 hPa | 0 mm | - | - | - |
| 1778036696 | 14.44° C | 82% | 1009.6 hPa | 0 mm | - | - | - |
| 1778036392 | 14.44° C | 81% | 1009.6 hPa | 0 mm | - | - | - |
| 1778036089 | 14.44° C | 81% | 1008.5 hPa | 0 mm | - | - | - |
| 1778035786 | 14.44° C | 81% | 1008.5 hPa | 0 mm | - | - | - |
| 1778035483 | 15° C | 80% | 1008.5 hPa | 0 mm | - | - | - |
* Rain latest hour (hover to see other rain measurements)
** Current wind speed in m/s (hover to see current wind gust speed)